Time;durP1;ratioP1;P1;durP2;ratioP2;P2;SDS_P1;SDS_P2;PMS_P1;PMS_P2;Temp;Humidity;BMP_temperature;BMP_pressure;BME280_temperature;BME280_humidity;BME280_pressure;Samples;Min_cycle;Max_cycle;Signal;HPM_P1;HPM_P2
2023/07/06 00:00:15;;;;;;;3.60;2.63;;;;;;;;;;6209019;23;20092;-89
2023/07/06 00:02:41;;;;;;;6.95;3.40;;;;;;;;;;6207886;23;20016;-88
2023/07/06 00:05:08;;;;;;;4.45;3.50;;;;;;;;;;6208656;23;20020;-89
2023/07/06 00:07:34;;;;;;;5.38;3.38;;;;;;;;;;6208149;23;20422;-88
2023/07/06 00:10:00;;;;;;;5.50;3.03;;;;;;;;;;6208939;23;20044;-88
2023/07/06 00:12:29;;;;;;;6.32;3.42;;;;;;;;;;6206587;23;20048;-89
2023/07/06 00:14:55;;;;;;;5.07;3.13;;;;;;;;;;6206952;23;20016;-88
2023/07/06 00:17:22;;;;;;;8.75;3.50;;;;;;;;;;6207777;23;20094;-89
2023/07/06 00:19:48;;;;;;;6.35;3.00;;;;;;;;;;6209593;23;20087;-90
2023/07/06 00:22:15;;;;;;;4.65;3.17;;;;;;;;;;6209453;23;20016;-90
2023/07/06 00:24:42;;;;;;;5.18;3.33;;;;;;;;;;6215851;23;20072;-90
2023/07/06 00:27:08;;;;;;;4.55;3.10;;;;;;;;;;6212478;23;20027;-91
2023/07/06 00:29:35;;;;;;;7.68;3.58;;;;;;;;;;6215651;23;20016;-90
2023/07/06 00:32:15;;;;;;;4.47;3.25;;;;;;;;;;6224069;23;19996;-90
2023/07/06 00:34:45;;;;;;;6.70;3.53;;;;;;;;;;6230399;23;20405;-90
2023/07/06 00:37:12;;;;;;;8.10;3.85;;;;;;;;;;6219921;23;20330;-91
2023/07/06 00:39:38;;;;;;;3.80;2.78;;;;;;;;;;6211967;23;20012;-91
2023/07/06 00:42:05;;;;;;;3.85;3.33;;;;;;;;;;6207241;23;20051;-90
2023/07/06 00:44:52;;;;;;;3.90;2.72;;;;;;;;;;6183822;23;20039;-92
2023/07/06 00:47:41;;;;;;;4.05;3.25;;;;;;;;;;6210481;23;20035;-90
2023/07/06 00:50:10;;;;;;;6.75;3.10;;;;;;;;;;6206002;23;20023;-91
2023/07/06 00:52:39;;;;;;;5.95;3.35;;;;;;;;;;6213985;23;20063;-91
2023/07/06 00:55:07;;;;;;;5.20;3.47;;;;;;;;;;6207862;23;20013;-90
2023/07/06 00:57:35;;;;;;;4.38;3.17;;;;;;;;;;6209121;23;20122;-90
2023/07/06 01:00:04;;;;;;;7.07;3.33;;;;;;;;;;6208978;23;20449;-91
2023/07/06 01:02:30;;;;;;;5.95;2.83;;;;;;;;;;6209714;23;20012;-92
2023/07/06 01:04:57;;;;;;;5.07;3.10;;;;;;;;;;6205717;23;20012;-90
2023/07/06 01:07:25;;;;;;;4.88;3.08;;;;;;;;;;6207662;23;20025;-92
2023/07/06 01:09:52;;;;;;;2.88;2.58;;;;;;;;;;6207351;23;20021;-90
2023/07/06 01:12:19;;;;;;;5.03;2.92;;;;;;;;;;6205179;23;20071;-91
2023/07/06 01:14:45;;;;;;;3.95;2.67;;;;;;;;;;6207132;23;20021;-91
2023/07/06 01:17:27;;;;;;;3.70;2.70;;;;;;;;;;6206544;23;20017;-91
2023/07/06 01:20:25;;;;;;;5.03;3.13;;;;;;;;;;6205790;23;20039;-90
2023/07/06 01:22:51;;;;;;;4.45;2.72;;;;;;;;;;6174005;23;20345;-91
2023/07/06 01:25:21;;;;;;;4.53;2.95;;;;;;;;;;6205403;23;20106;-90
2023/07/06 01:28:05;;;;;;;5.63;3.05;;;;;;;;;;6205785;23;20367;-92
2023/07/06 01:30:50;;;;;;;3.58;2.42;;;;;;;;;;6206042;23;20023;-90
2023/07/06 01:33:22;;;;;;;3.90;2.83;;;;;;;;;;6206175;23;20016;-90
2023/07/06 01:35:53;;;;;;;4.70;2.92;;;;;;;;;;6206338;23;20035;-92
2023/07/06 01:38:22;;;;;;;3.25;2.60;;;;;;;;;;6205365;23;20024;-89
2023/07/06 01:40:49;;;;;;;3.88;2.90;;;;;;;;;;6207264;23;20008;-91
2023/07/06 01:43:16;;;;;;;3.60;2.80;;;;;;;;;;6205491;23;20736;-91
2023/07/06 01:45:44;;;;;;;4.20;2.92;;;;;;;;;;6207203;23;20028;-91
2023/07/06 01:48:11;;;;;;;6.15;2.90;;;;;;;;;;6206980;23;20016;-91
2023/07/06 01:50:49;;;;;;;4.70;2.78;;;;;;;;;;6208063;23;20024;-91
2023/07/06 01:53:17;;;;;;;3.85;3.20;;;;;;;;;;6207514;23;20439;-90
2023/07/06 01:55:45;;;;;;;4.25;2.97;;;;;;;;;;6207113;23;20020;-91
2023/07/06 01:58:25;;;;;;;4.35;2.72;;;;;;;;;;6208034;23;20532;-90
2023/07/06 02:00:55;;;;;;;3.47;2.50;;;;;;;;;;6206841;23;20012;-90
2023/07/06 02:03:24;;;;;;;6.80;2.90;;;;;;;;;;6206111;23;20071;-90
2023/07/06 02:05:51;;;;;;;4.20;2.88;;;;;;;;;;6207723;23;20009;-90
2023/07/06 02:08:17;;;;;;;6.05;2.90;;;;;;;;;;6204385;23;20042;-91
2023/07/06 02:10:43;;;;;;;4.68;2.60;;;;;;;;;;6205962;23;20031;-90
2023/07/06 02:13:09;;;;;;;3.78;2.75;;;;;;;;;;6205188;23;20099;-90
2023/07/06 02:15:35;;;;;;;3.72;2.50;;;;;;;;;;6205627;23;20017;-90
2023/07/06 02:18:02;;;;;;;4.95;2.55;;;;;;;;;;6205581;23;20088;-90
2023/07/06 02:20:29;;;;;;;4.05;3.08;;;;;;;;;;6207619;23;20083;-91
2023/07/06 02:22:55;;;;;;;5.43;3.13;;;;;;;;;;6206961;23;20012;-90
2023/07/06 02:25:21;;;;;;;3.75;2.95;;;;;;;;;;6208144;23;20020;-91
2023/07/06 02:27:48;;;;;;;3.63;3.20;;;;;;;;;;6209694;23;20012;-91
2023/07/06 02:30:15;;;;;;;4.72;3.08;;;;;;;;;;6208577;23;20330;-92
2023/07/06 02:32:41;;;;;;;4.72;3.38;;;;;;;;;;6208866;23;20087;-90
2023/07/06 02:35:10;;;;;;;7.15;4.18;;;;;;;;;;6209825;23;20386;-91
2023/07/06 02:37:38;;;;;;;5.00;3.53;;;;;;;;;;6207980;23;20023;-91
2023/07/06 02:40:07;;;;;;;4.70;3.40;;;;;;;;;;6207318;23;20023;-91
2023/07/06 02:42:34;;;;;;;5.75;4.10;;;;;;;;;;6208466;23;20028;-91
2023/07/06 02:45:00;;;;;;;7.10;3.58;;;;;;;;;;6209558;23;20044;-90
2023/07/06 02:47:26;;;;;;;5.18;3.33;;;;;;;;;;6209800;23;20020;-90
2023/07/06 02:49:52;;;;;;;4.75;3.15;;;;;;;;;;6207681;23;20013;-91
2023/07/06 02:52:18;;;;;;;5.47;3.60;;;;;;;;;;6209218;23;20009;-92
2023/07/06 02:54:44;;;;;;;4.25;3.30;;;;;;;;;;6210465;23;20044;-91
2023/07/06 02:57:10;;;;;;;4.45;3.10;;;;;;;;;;6207719;23;20016;-91
2023/07/06 02:59:37;;;;;;;4.53;3.80;;;;;;;;;;6207901;23;20458;-90
2023/07/06 03:02:03;;;;;;;4.88;3.17;;;;;;;;;;6207671;23;20565;-91
2023/07/06 03:04:30;;;;;;;4.35;3.35;;;;;;;;;;6208607;23;20120;-91
2023/07/06 03:06:56;;;;;;;6.65;3.90;;;;;;;;;;6206267;23;20017;-91
2023/07/06 03:09:23;;;;;;;6.30;3.78;;;;;;;;;;6207194;23;20009;-90
2023/07/06 03:11:49;;;;;;;5.78;3.35;;;;;;;;;;6208104;23;20023;-90
2023/07/06 03:14:16;;;;;;;5.43;3.40;;;;;;;;;;6209804;23;20042;-90
2023/07/06 03:16:43;;;;;;;6.20;4.43;;;;;;;;;;6207851;23;20027;-91
2023/07/06 03:19:13;;;;;;;6.82;4.03;;;;;;;;;;6208761;23;20012;-91
2023/07/06 03:21:39;;;;;;;8.48;4.07;;;;;;;;;;6207173;23;20012;-91
2023/07/06 03:24:08;;;;;;;5.30;3.72;;;;;;;;;;6209301;23;20417;-91
2023/07/06 03:26:36;;;;;;;5.25;3.55;;;;;;;;;;6207395;23;20012;-91
2023/07/06 03:29:03;;;;;;;9.07;4.53;;;;;;;;;;6208284;23;20367;-89
2023/07/06 03:31:30;;;;;;;5.63;3.53;;;;;;;;;;6209500;23;20386;-90
2023/07/06 03:33:56;;;;;;;6.07;3.90;;;;;;;;;;6206568;23;20428;-91
2023/07/06 03:36:22;;;;;;;6.75;4.18;;;;;;;;;;6207005;23;20021;-90
2023/07/06 03:38:49;;;;;;;7.88;3.88;;;;;;;;;;6207339;23;20017;-90
2023/07/06 03:41:16;;;;;;;8.40;3.97;;;;;;;;;;6206940;23;20039;-90
2023/07/06 03:43:42;;;;;;;5.38;3.67;;;;;;;;;;6208073;23;20032;-91
2023/07/06 03:46:09;;;;;;;6.45;4.20;;;;;;;;;;6209410;23;20063;-90
2023/07/06 03:48:35;;;;;;;6.80;3.80;;;;;;;;;;6208470;23;20312;-91
2023/07/06 03:51:03;;;;;;;8.35;4.30;;;;;;;;;;6208895;23;20043;-92
2023/07/06 03:53:29;;;;;;;5.07;3.67;;;;;;;;;;6209707;23;20031;-90
2023/07/06 03:55:55;;;;;;;8.27;4.30;;;;;;;;;;6206489;23;20402;-90
2023/07/06 03:58:22;;;;;;;5.82;3.85;;;;;;;;;;6206386;23;20020;-90
2023/07/06 04:00:48;;;;;;;4.60;3.85;;;;;;;;;;6208650;23;20311;-90
2023/07/06 04:03:14;;;;;;;7.20;4.35;;;;;;;;;;6208103;23;20316;-91
2023/07/06 04:05:44;;;;;;;6.05;4.15;;;;;;;;;;6209329;23;20016;-91
2023/07/06 04:08:16;;;;;;;6.68;3.88;;;;;;;;;;6208472;23;20092;-90
2023/07/06 04:10:42;;;;;;;6.60;4.35;;;;;;;;;;6207742;23;20012;-91
2023/07/06 04:13:09;;;;;;;6.70;4.22;;;;;;;;;;6209523;23;20113;-91
2023/07/06 04:15:37;;;;;;;7.22;4.15;;;;;;;;;;6207097;23;20023;-91
2023/07/06 04:18:05;;;;;;;8.30;3.63;;;;;;;;;;6205827;23;20019;-90
2023/07/06 04:20:31;;;;;;;7.75;4.80;;;;;;;;;;6207585;23;20083;-90
2023/07/06 04:22:58;;;;;;;5.85;4.13;;;;;;;;;;6206767;23;20444;-91
2023/07/06 04:25:29;;;;;;;5.47;4.13;;;;;;;;;;6208612;23;20017;-91
2023/07/06 04:27:56;;;;;;;8.20;4.18;;;;;;;;;;6207078;23;20017;-90
2023/07/06 04:30:23;;;;;;;6.80;4.15;;;;;;;;;;6208190;23;20013;-91
2023/07/06 04:32:49;;;;;;;5.35;3.72;;;;;;;;;;6206879;23;20016;-91
2023/07/06 04:35:21;;;;;;;6.53;3.75;;;;;;;;;;6207187;23;20019;-90
2023/07/06 04:37:48;;;;;;;5.85;3.67;;;;;;;;;;6206944;23;20052;-91
2023/07/06 04:40:17;;;;;;;6.40;4.30;;;;;;;;;;6208867;23;20114;-90
2023/07/06 04:42:45;;;;;;;5.80;3.60;;;;;;;;;;6207613;23;20020;-91
2023/07/06 04:45:12;;;;;;;6.63;3.92;;;;;;;;;;6206216;23;20346;-89
2023/07/06 04:47:39;;;;;;;8.18;3.83;;;;;;;;;;6209080;23;20016;-90
2023/07/06 04:50:09;;;;;;;8.68;4.25;;;;;;;;;;6206360;23;20017;-90
2023/07/06 04:52:37;;;;;;;7.22;3.55;;;;;;;;;;6209027;23;20008;-91
2023/07/06 04:55:05;;;;;;;8.90;3.97;;;;;;;;;;6206603;23;20480;-90
2023/07/06 04:57:31;;;;;;;6.55;3.40;;;;;;;;;;6206259;23;20021;-91
2023/07/06 04:59:57;;;;;;;8.43;3.65;;;;;;;;;;6208412;23;20092;-90
2023/07/06 05:02:23;;;;;;;5.88;3.30;;;;;;;;;;6207415;23;20012;-91
2023/07/06 05:04:51;;;;;;;5.93;4.13;;;;;;;;;;6208639;23;20330;-91
2023/07/06 05:07:18;;;;;;;7.38;4.30;;;;;;;;;;6207753;23;20383;-90
2023/07/06 05:09:44;;;;;;;5.95;3.25;;;;;;;;;;6208480;23;20017;-90
2023/07/06 05:12:10;;;;;;;6.80;3.97;;;;;;;;;;6204793;23;20091;-90
2023/07/06 05:14:37;;;;;;;6.15;4.00;;;;;;;;;;6206825;23;20235;-87
2023/07/06 05:17:03;;;;;;;7.72;4.00;;;;;;;;;;6204139;23;20020;-87
2023/07/06 05:19:29;;;;;;;7.90;4.18;;;;;;;;;;6208847;23;20008;-92
2023/07/06 05:21:55;;;;;;;6.93;4.43;;;;;;;;;;6204781;23;20493;-90
2023/07/06 05:24:22;;;;;;;5.90;4.47;;;;;;;;;;6206092;23;20020;-92
2023/07/06 05:26:48;;;;;;;5.35;3.83;;;;;;;;;;6180472;23;20088;-89
2023/07/06 05:29:14;;;;;;;6.93;4.28;;;;;;;;;;6205358;23;20024;-89
2023/07/06 05:31:41;;;;;;;8.35;4.20;;;;;;;;;;6206120;23;20012;-88
2023/07/06 05:34:08;;;;;;;6.13;4.32;;;;;;;;;;6206831;23;20024;-91
2023/07/06 05:36:36;;;;;;;6.30;3.65;;;;;;;;;;6208419;23;20013;-89
2023/07/06 05:39:03;;;;;;;8.13;4.88;;;;;;;;;;6207577;23;20023;-90
2023/07/06 05:41:30;;;;;;;6.47;4.72;;;;;;;;;;6179943;23;20137;-89
2023/07/06 05:43:56;;;;;;;6.43;4.43;;;;;;;;;;6205441;23;20322;-89
2023/07/06 05:46:23;;;;;;;6.82;4.32;;;;;;;;;;6205890;23;20012;-88
2023/07/06 05:48:50;;;;;;;5.25;4.28;;;;;;;;;;6206482;23;20016;-88
2023/07/06 05:51:16;;;;;;;9.18;4.75;;;;;;;;;;6206068;23;20338;-90
2023/07/06 05:53:42;;;;;;;9.95;5.07;;;;;;;;;;6207763;23;20366;-89
2023/07/06 05:56:09;;;;;;;8.23;4.63;;;;;;;;;;6205194;23;20020;-88
2023/07/06 05:58:36;;;;;;;8.48;5.38;;;;;;;;;;6180986;23;20017;-90
2023/07/06 06:01:02;;;;;;;9.15;5.35;;;;;;;;;;6208005;23;20040;-88
2023/07/06 06:03:29;;;;;;;7.95;4.75;;;;;;;;;;6206257;23;20017;-89
2023/07/06 06:05:55;;;;;;;9.13;5.30;;;;;;;;;;6205594;23;20008;-91
2023/07/06 06:08:21;;;;;;;9.65;5.55;;;;;;;;;;6207447;23;20473;-88
2023/07/06 06:10:52;;;;;;;8.68;4.88;;;;;;;;;;6208182;23;20024;-89
2023/07/06 06:13:18;;;;;;;;;;;;;;;;;;6206718;23;20044;-89
2023/07/06 06:15:44;;;;;;;9.10;4.50;;;;;;;;;;6205846;23;20215;-91
2023/07/06 06:18:11;;;;;;;5.57;4.28;;;;;;;;;;6205805;23;20017;-89
2023/07/06 06:20:37;;;;;;;8.43;4.82;;;;;;;;;;6205956;23;20016;-86
2023/07/06 06:23:04;;;;;;;6.18;4.35;;;;;;;;;;6203247;23;20024;-89
2023/07/06 06:25:31;;;;;;;7.38;4.90;;;;;;;;;;6204319;23;20091;-84
2023/07/06 06:27:57;;;;;;;7.88;4.88;;;;;;;;;;6206549;23;20021;-84
2023/07/06 06:30:23;;;;;;;7.60;4.72;;;;;;;;;;6202798;23;20013;-85
2023/07/06 06:32:49;;;;;;;8.18;5.03;;;;;;;;;;6204788;23;20040;-85
2023/07/06 06:35:23;;;;;;;10.68;4.57;;;;;;;;;;6206026;23;20031;-84
2023/07/06 06:37:49;;;;;;;7.60;4.57;;;;;;;;;;6206071;23;20059;-84
2023/07/06 06:40:15;;;;;;;8.10;3.92;;;;;;;;;;6204748;23;20070;-83
2023/07/06 06:42:42;;;;;;;8.55;3.97;;;;;;;;;;6203927;23;20024;-86
2023/07/06 06:45:08;;;;;;;8.50;4.65;;;;;;;;;;6175812;23;20088;-84
2023/07/06 06:47:34;;;;;;;5.65;3.88;;;;;;;;;;6206169;23;20013;-89
2023/07/06 06:50:03;;;;;;;9.25;4.35;;;;;;;;;;6205550;23;20016;-86
2023/07/06 06:52:29;;;;;;;8.18;4.57;;;;;;;;;;6204209;23;20079;-87
2023/07/06 06:54:55;;;;;;;7.07;4.25;;;;;;;;;;6205383;23;20399;-85
2023/07/06 06:57:22;;;;;;;6.82;4.10;;;;;;;;;;6205829;23;20017;-85
2023/07/06 06:59:48;;;;;;;9.32;3.92;;;;;;;;;;6204620;23;20401;-85
2023/07/06 07:02:15;;;;;;;10.82;5.55;;;;;;;;;;6205980;23;20017;-89
2023/07/06 07:04:41;;;;;;;4.85;4.28;;;;;;;;;;6205433;23;20013;-87
2023/07/06 07:07:07;;;;;;;8.52;4.43;;;;;;;;;;6205208;23;20009;-87
2023/07/06 07:09:33;;;;;;;8.60;4.82;;;;;;;;;;6207368;23;20094;-87
2023/07/06 07:12:00;;;;;;;7.63;5.70;;;;;;;;;;6203151;23;20023;-89
2023/07/06 07:14:26;;;;;;;8.50;5.00;;;;;;;;;;6205886;23;20016;-87
2023/07/06 07:16:52;;;;;;;8.45;4.38;;;;;;;;;;6207954;23;20143;-85
2023/07/06 07:19:21;;;;;;;10.70;4.47;;;;;;;;;;6208422;23;20024;-87
2023/07/06 07:21:49;;;;;;;6.53;4.43;;;;;;;;;;6206461;23;20070;-86
2023/07/06 07:24:15;;;;;;;5.78;4.32;;;;;;;;;;6205746;23;20021;-84
2023/07/06 07:26:41;;;;;;;7.35;5.07;;;;;;;;;;6208162;23;20501;-86
2023/07/06 07:29:07;;;;;;;9.25;4.70;;;;;;;;;;6206331;23;20020;-86
2023/07/06 07:31:33;;;;;;;6.15;4.15;;;;;;;;;;6208816;23;20023;-85
2023/07/06 07:33:59;;;;;;;7.85;5.28;;;;;;;;;;6206554;23;20099;-87
2023/07/06 07:36:25;;;;;;;6.97;4.90;;;;;;;;;;6206069;23;20020;-85
2023/07/06 07:38:53;;;;;;;7.45;4.53;;;;;;;;;;6207208;23;20027;-89
2023/07/06 07:41:19;;;;;;;7.82;5.32;;;;;;;;;;6207591;23;20029;-87
2023/07/06 07:43:46;;;;;;;8.85;4.63;;;;;;;;;;6208132;23;20012;-89
2023/07/06 07:46:13;;;;;;;8.85;4.90;;;;;;;;;;6206554;23;20063;-90
2023/07/06 07:48:45;;;;;;;12.25;6.43;;;;;;;;;;6209604;23;20016;-88
2023/07/06 07:51:12;;;;;;;9.05;5.43;;;;;;;;;;6207762;23;20016;-91
2023/07/06 07:53:39;;;;;;;9.68;5.18;;;;;;;;;;6181989;23;20095;-87
2023/07/06 07:56:05;;;;;;;10.20;6.43;;;;;;;;;;6208237;23;20020;-85
2023/07/06 07:58:33;;;;;;;7.70;5.03;;;;;;;;;;6208767;23;20414;-90
2023/07/06 08:01:00;;;;;;;5.60;4.15;;;;;;;;;;6180691;23;20020;-88
2023/07/06 08:03:27;;;;;;;9.13;5.20;;;;;;;;;;6206818;23;20058;-94
2023/07/06 08:05:56;;;;;;;8.10;5.68;;;;;;;;;;6206731;23;20008;-89
2023/07/06 08:08:23;;;;;;;8.00;5.30;;;;;;;;;;6207127;23;20020;-87
2023/07/06 08:10:50;;;;;;;10.50;5.07;;;;;;;;;;6206638;23;20022;-92
2023/07/06 08:13:16;;;;;;;5.13;4.28;;;;;;;;;;6207191;23;20017;-92
2023/07/06 08:15:44;;;;;;;9.45;5.78;;;;;;;;;;6209178;23;20012;-91
2023/07/06 08:18:10;;;;;;;9.02;4.75;;;;;;;;;;6206580;23;20012;-91
2023/07/06 08:20:38;;;;;;;8.60;4.95;;;;;;;;;;6209327;23;20016;-89
2023/07/06 08:23:12;;;;;;;7.25;4.03;;;;;;;;;;6205878;23;20015;-91
2023/07/06 08:25:42;;;;;;;7.28;4.00;;;;;;;;;;6207299;23;20020;-90
2023/07/06 08:28:09;;;;;;;8.10;4.05;;;;;;;;;;6206498;23;20019;-90
2023/07/06 08:30:36;;;;;;;4.25;3.83;;;;;;;;;;6208275;23;20084;-90
2023/07/06 08:33:04;;;;;;;5.25;3.83;;;;;;;;;;6207173;23;20022;-93
2023/07/06 08:35:30;;;;;;;5.60;3.70;;;;;;;;;;6209829;23;20062;-89
2023/07/06 08:37:57;;;;;;;4.70;3.28;;;;;;;;;;6208794;23;20027;-88
2023/07/06 08:40:26;;;;;;;4.20;3.35;;;;;;;;;;6207464;23;20012;-88
2023/07/06 08:42:55;;;;;;;5.85;3.42;;;;;;;;;;6185418;23;20016;-91
2023/07/06 08:45:23;;;;;;;3.58;2.60;;;;;;;;;;6210845;23;20017;-92
2023/07/06 08:47:50;;;;;;;3.92;2.75;;;;;;;;;;6182943;23;20047;-89
2023/07/06 08:50:22;;;;;;;4.30;2.33;;;;;;;;;;6206873;23;20098;-85
2023/07/06 08:52:48;;;;;;;3.33;2.58;;;;;;;;;;6208579;23;20013;-86
2023/07/06 08:55:16;;;;;;;3.85;2.97;;;;;;;;;;6205481;23;20091;-84
2023/07/06 08:57:45;;;;;;;3.58;3.17;;;;;;;;;;6207041;23;20024;-85
2023/07/06 09:00:23;;;;;;;5.13;2.30;;;;;;;;;;6207197;23;20339;-84
2023/07/06 09:02:56;;;;;;;5.25;2.72;;;;;;;;;;6207482;23;20015;-85
2023/07/06 09:05:23;;;;;;;5.68;2.63;;;;;;;;;;6205128;23;20016;-84
2023/07/06 09:07:49;;;;;;;6.95;2.78;;;;;;;;;;6204776;23;20408;-84
2023/07/06 09:10:17;;;;;;;4.40;2.67;;;;;;;;;;6204109;23;20083;-84
2023/07/06 09:12:43;;;;;;;5.10;2.15;;;;;;;;;;6208041;23;20425;-84
2023/07/06 09:15:10;;;;;;;3.22;2.05;;;;;;;;;;6207754;23;20024;-85
2023/07/06 09:17:57;;;;;;;3.00;2.22;;;;;;;;;;6206652;23;20008;-84
2023/07/06 09:20:26;;;;;;;2.97;1.80;;;;;;;;;;6208078;23;20020;-84
2023/07/06 09:22:53;;;;;;;2.88;1.55;;;;;;;;;;6206510;23;20013;-84
2023/07/06 09:25:27;;;;;;;1.45;1.23;;;;;;;;;;6206966;23;20048;-83
2023/07/06 09:27:55;;;;;;;2.40;1.40;;;;;;;;;;6206066;23;20021;-83
2023/07/06 09:30:29;;;;;;;1.65;1.20;;;;;;;;;;6204786;23;20017;-84
2023/07/06 09:33:00;;;;;;;2.00;1.38;;;;;;;;;;6205981;23;20044;-82
2023/07/06 09:35:29;;;;;;;2.10;1.42;;;;;;;;;;6207273;23;20115;-83
2023/07/06 09:37:56;;;;;;;4.35;1.67;;;;;;;;;;6205461;23;20020;-83
2023/07/06 09:40:29;;;;;;;2.97;1.30;;;;;;;;;;6206317;23;20016;-85
2023/07/06 09:42:55;;;;;;;2.00;1.63;;;;;;;;;;6180199;23;20024;-83
2023/07/06 09:45:23;;;;;;;1.92;1.35;;;;;;;;;;6205535;23;20457;-83
2023/07/06 09:47:54;;;;;;;2.40;1.40;;;;;;;;;;6206667;23;20438;-84
2023/07/06 09:50:28;;;;;;;3.17;1.40;;;;;;;;;;6208226;23;20091;-83
2023/07/06 09:52:56;;;;;;;2.65;1.38;;;;;;;;;;6205726;23;20020;-85
2023/07/06 09:55:30;;;;;;;3.38;1.58;;;;;;;;;;6207714;23;20442;-84
2023/07/06 09:57:59;;;;;;;2.67;1.35;;;;;;;;;;6205524;23;20024;-83
2023/07/06 10:00:47;;;;;;;3.88;1.63;;;;;;;;;;6205966;23;20328;-83
2023/07/06 10:03:28;;;;;;;4.07;1.70;;;;;;;;;;6206100;23;20017;-83
2023/07/06 10:06:03;;;;;;;2.47;1.50;;;;;;;;;;6205975;23;20024;-85
2023/07/06 10:08:35;;;;;;;3.40;1.80;;;;;;;;;;6206380;23;20397;-86
2023/07/06 10:11:14;;;;;;;2.67;2.08;;;;;;;;;;6206981;23;20012;-82
2023/07/06 10:13:47;;;;;;;3.38;1.90;;;;;;;;;;6207478;23;20087;-82
2023/07/06 10:16:16;;;;;;;4.05;2.00;;;;;;;;;;6205476;23;20067;-83
2023/07/06 10:18:49;;;;;;;5.15;2.15;;;;;;;;;;6205863;23;20412;-85
2023/07/06 10:21:22;;;;;;;2.20;2.00;;;;;;;;;;6204324;23;20013;-81
2023/07/06 10:23:58;;;;;;;2.35;1.85;;;;;;;;;;6204682;23;20502;-82
2023/07/06 10:26:40;;;;;;;4.63;1.83;;;;;;;;;;6205708;23;20044;-83
2023/07/06 10:29:16;;;;;;;6.20;2.10;;;;;;;;;;6204811;23;20044;-83
2023/07/06 10:32:05;;;;;;;3.42;1.92;;;;;;;;;;6204857;23;20048;-82
2023/07/06 10:34:40;;;;;;;3.90;2.30;;;;;;;;;;6205302;23;20020;-82
2023/07/06 10:37:07;;;;;;;3.22;1.77;;;;;;;;;;6204824;23;20098;-82
2023/07/06 10:39:33;;;;;;;3.45;1.50;;;;;;;;;;6206173;23;20021;-82
2023/07/06 10:42:03;;;;;;;5.25;1.77;;;;;;;;;;6203724;23;20456;-82
2023/07/06 10:44:43;;;;;;;3.10;1.55;;;;;;;;;;6206657;23;20017;-83
2023/07/06 10:47:28;;;;;;;2.53;1.67;;;;;;;;;;6206891;23;20024;-81
2023/07/06 10:50:19;;;;;;;2.35;1.80;;;;;;;;;;6181225;23;20066;-82
2023/07/06 10:52:55;;;;;;;4.35;1.25;;;;;;;;;;6196571;23;20021;-82
2023/07/06 10:55:24;;;;;;;1.75;1.23;;;;;;;;;;6208126;23;20021;-82
2023/07/06 10:57:51;;;;;;;2.83;1.58;;;;;;;;;;6207150;23;20021;-84
2023/07/06 11:00:19;;;;;;;3.33;1.40;;;;;;;;;;6207588;23;20020;-84
2023/07/06 11:02:45;;;;;;;5.60;1.88;;;;;;;;;;6207499;23;20099;-84
2023/07/06 11:05:24;;;;;;;2.58;1.30;;;;;;;;;;6206578;23;20311;-81
2023/07/06 11:07:52;;;;;;;2.40;1.23;;;;;;;;;;6207742;23;20023;-82
2023/07/06 11:10:24;;;;;;;2.53;2.05;;;;;;;;;;6207468;23;20014;-83
2023/07/06 11:12:54;;;;;;;4.20;1.48;;;;;;;;;;6207309;23;20096;-83
2023/07/06 11:15:23;;;;;;;2.15;1.15;;;;;;;;;;6207489;23;20071;-81
2023/07/06 11:17:51;;;;;;;2.95;1.67;;;;;;;;;;6207666;23;20469;-83
2023/07/06 11:20:17;;;;;;;3.45;1.23;;;;;;;;;;6205769;23;20012;-83
2023/07/06 11:22:45;;;;;;;3.25;1.20;;;;;;;;;;6208801;23;20016;-84
2023/07/06 11:25:14;;;;;;;5.32;1.58;;;;;;;;;;6206263;23;20334;-84
2023/07/06 11:27:44;;;;;;;2.95;1.40;;;;;;;;;;6207074;23;20013;-85
2023/07/06 11:30:13;;;;;;;4.15;1.40;;;;;;;;;;6207000;23;20031;-85
2023/07/06 11:32:51;;;;;;;4.40;1.40;;;;;;;;;;6207471;23;20316;-85
2023/07/06 11:35:18;;;;;;;1.25;1.10;;;;;;;;;;6208234;23;20021;-85
2023/07/06 11:38:03;;;;;;;1.67;1.13;;;;;;;;;;6206318;23;20016;-85
2023/07/06 11:40:32;;;;;;;3.55;1.35;;;;;;;;;;6209113;23;20424;-86
2023/07/06 11:43:10;;;;;;;1.75;1.15;;;;;;;;;;6206402;23;20399;-84
2023/07/06 11:45:38;;;;;;;2.55;1.10;;;;;;;;;;6209206;23;20095;-84
2023/07/06 11:48:13;;;;;;;2.50;1.55;;;;;;;;;;6206174;23;20017;-87
2023/07/06 11:50:40;;;;;;;3.63;1.63;;;;;;;;;;6206720;23;20059;-90
2023/07/06 11:53:17;;;;;;;2.47;1.20;;;;;;;;;;6182223;23;20406;-91
2023/07/06 11:55:54;;;;;;;2.55;1.00;;;;;;;;;;6206938;23;20017;-85
2023/07/06 12:01:33;;;;;;;2.67;1.17;;;;;;;;;;6208694;23;20095;-86
2023/07/06 12:04:01;;;;;;;2.45;1.00;;;;;;;;;;6205967;23;20078;-86
2023/07/06 12:06:27;;;;;;;1.88;1.23;;;;;;;;;;6209146;23;20345;-84
2023/07/06 12:08:55;;;;;;;1.52;0.93;;;;;;;;;;6206990;23;20341;-85
2023/07/06 12:11:23;;;;;;;2.45;1.10;;;;;;;;;;6206465;23;20439;-85
2023/07/06 12:13:53;;;;;;;2.13;1.13;;;;;;;;;;6209622;23;20012;-85
2023/07/06 12:16:21;;;;;;;2.75;1.38;;;;;;;;;;6206267;23;20075;-86
2023/07/06 12:18:51;;;;;;;1.30;0.90;;;;;;;;;;6206262;23;20453;-84
2023/07/06 12:21:23;;;;;;;2.33;1.23;;;;;;;;;;6209441;23;20066;-85
2023/07/06 12:23:49;;;;;;;1.92;1.05;;;;;;;;;;6207255;23;20017;-92
2023/07/06 12:26:15;;;;;;;3.10;1.15;;;;;;;;;;6208766;23;20020;-88
2023/07/06 12:28:43;;;;;;;1.70;0.95;;;;;;;;;;6207493;23;20048;-84
2023/07/06 12:31:10;;;;;;;2.28;1.10;;;;;;;;;;6206139;23;20127;-83
2023/07/06 12:33:36;;;;;;;2.45;1.20;;;;;;;;;;6208104;23;20031;-84
2023/07/06 12:36:06;;;;;;;3.17;1.23;;;;;;;;;;6209403;23;20304;-83
2023/07/06 12:38:35;;;;;;;1.67;1.08;;;;;;;;;;6206671;23;20078;-82
2023/07/06 12:41:13;;;;;;;1.45;1.00;;;;;;;;;;6206170;23;20035;-82
2023/07/06 12:43:39;;;;;;;1.73;1.25;;;;;;;;;;6180843;23;20078;-82
2023/07/06 12:46:05;;;;;;;2.58;0.88;;;;;;;;;;6207726;23;20013;-82
2023/07/06 12:48:33;;;;;;;5.20;1.75;;;;;;;;;;6208456;23;20449;-82
2023/07/06 12:51:09;;;;;;;2.70;1.00;;;;;;;;;;6208052;23;20091;-84
2023/07/06 12:53:36;;;;;;;3.28;1.65;;;;;;;;;;6206857;23;20439;-81
2023/07/06 12:56:06;;;;;;;1.80;1.45;;;;;;;;;;6180902;23;20085;-83
2023/07/06 12:58:37;;;;;;;2.47;1.25;;;;;;;;;;6206500;23;20442;-84
2023/07/06 13:01:09;;;;;;;1.83;1.25;;;;;;;;;;6205341;23;20024;-82
2023/07/06 13:03:52;;;;;;;2.97;1.77;;;;;;;;;;6209170;23;20021;-81
2023/07/06 13:06:23;;;;;;;3.40;1.23;;;;;;;;;;6208399;23;20311;-82
2023/07/06 13:08:53;;;;;;;3.47;1.40;;;;;;;;;;6205699;23;20020;-84
2023/07/06 13:11:21;;;;;;;2.92;1.60;;;;;;;;;;6205735;23;20027;-84
2023/07/06 13:13:49;;;;;;;2.97;1.90;;;;;;;;;;6181032;23;20067;-83
2023/07/06 13:16:16;;;;;;;3.05;1.40;;;;;;;;;;6207297;23;20096;-84
2023/07/06 13:18:43;;;;;;;3.20;1.52;;;;;;;;;;6206142;23;20013;-83
2023/07/06 13:21:22;;;;;;;1.90;1.23;;;;;;;;;;6205445;23;20088;-84
2023/07/06 13:23:50;;;;;;;3.22;1.30;;;;;;;;;;6206225;23;20020;-88
2023/07/06 13:26:16;;;;;;;2.35;1.50;;;;;;;;;;6207173;23;20116;-89
2023/07/06 13:28:43;;;;;;;2.50;1.58;;;;;;;;;;6206017;23;20465;-84
2023/07/06 13:31:12;;;;;;;2.78;2.08;;;;;;;;;;6205659;23;20017;-86
2023/07/06 13:33:40;;;;;;;2.63;1.67;;;;;;;;;;6208692;23;20015;-83
2023/07/06 13:36:16;;;;;;;3.00;1.60;;;;;;;;;;6205854;23;20021;-94
2023/07/06 13:38:43;;;;;;;2.78;1.20;;;;;;;;;;6182372;23;20474;-93
2023/07/06 13:41:15;;;;;;;1.90;1.30;;;;;;;;;;6208365;23;20015;-96
2023/07/06 13:43:41;;;;;;;1.40;1.20;;;;;;;;;;6181925;23;20024;-90
2023/07/06 13:46:11;;;;;;;2.92;1.90;;;;;;;;;;6207828;23;20013;-95
2023/07/06 13:48:38;;;;;;;2.13;1.80;;;;;;;;;;6208613;23;20374;-92
2023/07/06 13:51:04;;;;;;;4.88;2.20;;;;;;;;;;6205357;23;20012;-85
2023/07/06 13:53:30;;;;;;;2.85;2.13;;;;;;;;;;6205881;23;20012;-86
2023/07/06 13:55:56;;;;;;;4.65;2.40;;;;;;;;;;6206687;23;20020;-85
2023/07/06 13:58:23;;;;;;;4.05;2.08;;;;;;;;;;6205948;23;20558;-89
2023/07/06 14:00:50;;;;;;;5.25;2.17;;;;;;;;;;6204086;23;20016;-88
2023/07/06 14:03:18;;;;;;;3.95;1.90;;;;;;;;;;6206132;23;20096;-87
2023/07/06 14:05:45;;;;;;;1.75;1.55;;;;;;;;;;6206713;23;20016;-88
2023/07/06 14:08:11;;;;;;;4.90;2.03;;;;;;;;;;6203383;23;20024;-88
2023/07/06 14:10:38;;;;;;;3.47;1.40;;;;;;;;;;6206227;23;20386;-87
2023/07/06 14:13:05;;;;;;;2.35;1.42;;;;;;;;;;6206909;23;20373;-86
2023/07/06 14:15:31;;;;;;;3.67;1.90;;;;;;;;;;6205471;23;20027;-85
2023/07/06 14:17:58;;;;;;;5.25;2.42;;;;;;;;;;6206373;23;20140;-88
2023/07/06 14:20:24;;;;;;;2.80;2.10;;;;;;;;;;6207371;23;20096;-92
2023/07/06 14:22:52;;;;;;;3.95;2.53;;;;;;;;;;6208012;23;20017;-86
2023/07/06 14:25:22;;;;;;;5.60;2.25;;;;;;;;;;6207698;23;20025;-88
2023/07/06 14:27:48;;;;;;;4.28;2.03;;;;;;;;;;6207450;23;20088;-87
2023/07/06 14:30:17;;;;;;;4.75;2.63;;;;;;;;;;6208560;23;20016;-87
2023/07/06 14:32:43;;;;;;;4.75;2.38;;;;;;;;;;6208077;23;20083;-87
2023/07/06 14:35:10;;;;;;;3.67;2.85;;;;;;;;;;6206971;23;20017;-86
2023/07/06 14:37:37;;;;;;;6.40;3.15;;;;;;;;;;6208359;23;20066;-89
2023/07/06 14:40:03;;;;;;;3.63;2.38;;;;;;;;;;6208755;23;20027;-89
2023/07/06 14:42:29;;;;;;;5.15;2.60;;;;;;;;;;6182611;23;20021;-92
2023/07/06 14:44:56;;;;;;;4.85;1.98;;;;;;;;;;6209179;23;20020;-86
2023/07/06 14:47:22;;;;;;;3.58;2.08;;;;;;;;;;6208469;23;20013;-87
2023/07/06 14:49:48;;;;;;;2.03;1.77;;;;;;;;;;6210009;23;20338;-88
2023/07/06 14:52:15;;;;;;;2.85;1.90;;;;;;;;;;6210061;23;20107;-93
2023/07/06 14:54:41;;;;;;;5.50;2.00;;;;;;;;;;6211274;23;20017;-86